createdAt,value
2017-11-04T00:01:54.963Z,9.10
2017-11-04T00:04:29.863Z,9.09
2017-11-04T00:07:05.013Z,9.08
2017-11-04T00:09:40.148Z,9.06
2017-11-04T00:12:15.224Z,8.96
2017-11-04T00:14:50.332Z,8.96
2017-11-04T00:17:24.953Z,8.95
2017-11-04T00:20:00.192Z,8.93
2017-11-04T00:22:34.974Z,8.91
2017-11-04T00:25:09.535Z,8.85
2017-11-04T00:27:43.756Z,8.81
2017-11-04T00:30:17.840Z,8.77
2017-11-04T00:32:53.210Z,8.70
2017-11-04T00:35:28.188Z,8.62
2017-11-04T00:38:03.032Z,8.58
2017-11-04T00:40:37.840Z,8.55
2017-11-04T00:43:12.393Z,8.52
2017-11-04T00:45:47.325Z,8.49
2017-11-04T00:48:21.867Z,8.47
2017-11-04T00:50:56.926Z,8.41
2017-11-04T00:53:32.072Z,8.42
2017-11-04T00:56:06.904Z,8.39
2017-11-04T00:58:41.424Z,8.32
2017-11-04T01:01:16.011Z,8.33
2017-11-04T01:03:50.944Z,8.25
2017-11-04T01:06:26.288Z,8.18
2017-11-04T01:09:00.963Z,8.15
2017-11-04T01:11:35.899Z,8.13
2017-11-04T01:14:10.424Z,8.10
2017-11-04T01:16:44.856Z,8.09
2017-11-04T01:19:20.007Z,8.08
2017-11-04T01:21:54.939Z,8.04
2017-11-04T01:24:29.369Z,8.01
2017-11-04T01:27:04.102Z,7.98
2017-11-04T01:29:38.696Z,7.94
2017-11-04T01:32:13.833Z,7.91
2017-11-04T01:34:48.845Z,7.90
2017-11-04T01:37:24.021Z,7.89
2017-11-04T01:39:58.868Z,7.89
2017-11-04T01:42:33.362Z,7.90
2017-11-04T01:45:08.670Z,7.90
2017-11-04T01:47:43.300Z,7.89
2017-11-04T01:50:18.224Z,7.90
2017-11-04T01:52:52.981Z,7.89
2017-11-04T01:55:28.055Z,7.89
2017-11-04T01:58:03.264Z,7.89
2017-11-04T02:00:38.507Z,7.89
2017-11-04T02:03:13.293Z,7.88
2017-11-04T02:05:47.612Z,7.86
2017-11-04T02:08:22.580Z,7.87
2017-11-04T02:10:57.540Z,7.82
2017-11-04T02:13:32.687Z,7.77
2017-11-04T02:16:07.460Z,7.76
2017-11-04T02:18:41.897Z,7.73
2017-11-04T02:21:16.812Z,7.70
2017-11-04T02:23:51.592Z,7.68
2017-11-04T02:26:26.511Z,7.68
2017-11-04T02:29:01.295Z,7.68
2017-11-04T02:31:36.756Z,7.71
2017-11-04T02:34:11.060Z,7.70
2017-11-04T02:36:45.329Z,7.68
2017-11-04T02:39:20.760Z,7.67
2017-11-04T02:41:55.808Z,7.68
2017-11-04T02:44:30.697Z,7.65
2017-11-04T02:47:05.588Z,7.64
2017-11-04T02:49:40.906Z,7.61
2017-11-04T02:52:16.032Z,7.51
2017-11-04T02:54:50.456Z,7.55
2017-11-04T02:57:25.601Z,7.53
2017-11-04T03:00:00.341Z,7.51
2017-11-04T03:02:35.379Z,7.52
2017-11-04T03:05:10.399Z,7.54
2017-11-04T03:07:45.440Z,7.52
2017-11-04T03:10:20.380Z,7.52
2017-11-04T03:12:55.735Z,7.51
2017-11-04T03:15:30.759Z,7.58
2017-11-04T03:18:06.307Z,7.59
2017-11-04T03:20:41.288Z,7.61
2017-11-04T03:23:15.171Z,7.65
2017-11-04T03:25:50.048Z,7.67
2017-11-04T03:28:25.140Z,7.66
2017-11-04T03:31:00.244Z,7.63
2017-11-04T03:33:35.072Z,7.61
2017-11-04T03:36:10.063Z,7.61
2017-11-04T03:38:44.880Z,7.60
2017-11-04T03:41:20.285Z,7.57
2017-11-04T03:43:55.155Z,7.55
2017-11-04T03:46:30.164Z,7.51
2017-11-04T03:49:05.273Z,7.49
2017-11-04T03:51:40.628Z,7.52
2017-11-04T03:54:15.748Z,7.53
2017-11-04T03:56:50.284Z,7.53
2017-11-04T03:59:25.524Z,7.55
2017-11-04T04:02:00.660Z,7.56
2017-11-04T04:04:35.508Z,7.58
2017-11-04T04:07:10.636Z,7.58
2017-11-04T04:09:45.163Z,7.57
2017-11-04T04:12:20.328Z,7.55
2017-11-04T04:14:55.719Z,7.55
2017-11-04T04:17:30.572Z,7.57
2017-11-04T04:20:05.456Z,7.58
2017-11-04T04:22:39.938Z,7.57
2017-11-04T04:25:15.069Z,7.56
2017-11-04T04:27:50.102Z,7.54
2017-11-04T04:30:25.208Z,7.51
2017-11-04T04:33:00.380Z,7.51
2017-11-04T04:35:35.432Z,7.52
2017-11-04T04:38:10.198Z,7.49
2017-11-04T04:40:45.226Z,7.47
2017-11-04T04:43:19.980Z,7.51
2017-11-04T04:45:54.896Z,7.56
2017-11-04T04:48:29.621Z,7.56
2017-11-04T04:51:05.247Z,7.57
2017-11-04T04:53:40.205Z,7.58
2017-11-04T04:56:15.528Z,7.59
2017-11-04T04:58:50.315Z,7.54
2017-11-04T05:01:25.664Z,7.48
2017-11-04T05:04:00.570Z,7.48
2017-11-04T05:06:35.984Z,7.47
2017-11-04T05:09:10.279Z,7.48
2017-11-04T05:11:45.396Z,7.43
2017-11-04T05:14:19.884Z,7.47
2017-11-04T05:16:54.804Z,7.43
2017-11-04T05:19:29.516Z,7.43
2017-11-04T05:22:04.386Z,7.40
2017-11-04T05:24:39.092Z,7.42
2017-11-04T05:27:14.023Z,7.41
2017-11-04T05:29:49.316Z,7.41
2017-11-04T05:32:24.472Z,7.43
2017-11-04T05:34:59.535Z,7.43
2017-11-04T05:37:34.476Z,7.43
2017-11-04T05:40:09.424Z,7.42
2017-11-04T05:42:44.452Z,7.41
2017-11-04T05:45:19.567Z,7.39
2017-11-04T05:47:54.828Z,7.39
2017-11-04T05:50:29.788Z,7.38
2017-11-04T05:53:04.715Z,7.38
2017-11-04T05:55:42.095Z,7.39
2017-11-04T05:58:16.311Z,7.43
2017-11-04T06:00:51.151Z,7.43
2017-11-04T06:03:25.207Z,7.45
2017-11-04T06:06:00.031Z,7.44
2017-11-04T06:08:35.281Z,7.44
2017-11-04T06:11:12.076Z,7.42
2017-11-04T06:13:47.407Z,7.42
2017-11-04T06:16:22.634Z,7.42
2017-11-04T06:18:57.367Z,7.45
2017-11-04T06:21:33.069Z,7.47
2017-11-04T06:24:08.671Z,7.46
2017-11-04T06:26:43.295Z,7.45
2017-11-04T06:29:18.635Z,7.48
2017-11-04T06:31:53.840Z,7.52
2017-11-04T06:34:28.868Z,7.55
2017-11-04T06:37:03.884Z,7.59
2017-11-04T06:39:38.743Z,7.60
2017-11-04T06:42:13.640Z,7.59
2017-11-04T06:44:48.251Z,7.66
2017-11-04T06:47:22.728Z,7.68
2017-11-04T06:49:57.708Z,7.66
2017-11-04T06:52:32.851Z,7.67
2017-11-04T06:55:07.788Z,7.70
2017-11-04T06:57:42.899Z,7.73
2017-11-04T07:00:17.792Z,7.73
2017-11-04T07:02:52.620Z,7.72
2017-11-04T07:05:27.427Z,7.77
2017-11-04T07:08:02.472Z,7.80
2017-11-04T07:10:37.486Z,7.85
2017-11-04T07:13:12.660Z,7.87
2017-11-04T07:15:47.587Z,7.88
2017-11-04T07:18:22.784Z,7.89
2017-11-04T07:20:57.819Z,7.91
2017-11-04T07:23:32.240Z,7.82
2017-11-04T07:26:07.485Z,7.93
2017-11-04T07:28:42.724Z,7.89
2017-11-04T07:31:17.695Z,7.92
2017-11-04T07:33:51.967Z,7.90
2017-11-04T07:36:26.444Z,7.89
2017-11-04T07:39:01.429Z,7.89
2017-11-04T07:41:36.352Z,7.94
2017-11-04T07:44:11.692Z,8.01
2017-11-04T07:46:47.281Z,8.09
2017-11-04T07:49:22.433Z,8.15
2017-11-04T07:51:57.812Z,8.24
2017-11-04T07:54:33.016Z,8.30
2017-11-04T07:57:08.321Z,8.37
2017-11-04T07:59:43.466Z,8.44
2017-11-04T08:02:18.605Z,8.52
2017-11-04T08:04:53.831Z,8.49
2017-11-04T08:07:29.000Z,8.55
2017-11-04T08:10:04.106Z,8.57
2017-11-04T08:12:38.606Z,8.58
2017-11-04T08:15:13.783Z,8.63
2017-11-04T08:17:48.896Z,8.72
2017-11-04T08:20:23.792Z,8.80
2017-11-04T08:22:59.076Z,8.91
2017-11-04T08:25:34.525Z,9.02
2017-11-04T08:28:10.189Z,9.14
2017-11-04T08:30:44.932Z,9.27
2017-11-04T08:33:19.736Z,9.31
2017-11-04T08:35:54.688Z,9.45
2017-11-04T08:38:29.924Z,9.62
2017-11-04T08:41:05.519Z,9.75
2017-11-04T08:43:41.082Z,9.85
2017-11-04T08:46:15.840Z,9.94
2017-11-04T08:48:50.513Z,10.01
2017-11-04T08:51:25.644Z,10.06
2017-11-04T08:54:00.229Z,10.06
2017-11-04T08:56:35.237Z,10.01
2017-11-04T08:59:10.172Z,9.91
2017-11-04T09:01:44.576Z,9.86
2017-11-04T09:04:20.005Z,9.79
2017-11-04T09:06:55.320Z,9.67
2017-11-04T09:09:30.367Z,9.66
2017-11-04T09:12:06.096Z,9.64
2017-11-04T09:14:40.821Z,9.70
2017-11-04T09:17:15.807Z,9.79
2017-11-04T09:19:50.287Z,9.97
2017-11-04T09:22:24.972Z,10.16
2017-11-04T09:25:00.256Z,10.37
2017-11-04T09:27:34.723Z,10.62
2017-11-04T09:30:10.021Z,10.72
2017-11-04T09:32:45.159Z,10.84
2017-11-04T09:35:20.340Z,10.89
2017-11-04T09:37:55.661Z,10.94
2017-11-04T09:40:30.872Z,10.96
2017-11-04T09:43:05.579Z,10.97
2017-11-04T09:45:40.436Z,10.98
2017-11-04T09:48:15.337Z,10.95
2017-11-04T09:50:50.563Z,11.01
2017-11-04T09:53:25.388Z,11.11
2017-11-04T09:56:00.419Z,11.27
2017-11-04T09:58:34.576Z,11.45
2017-11-04T10:01:09.059Z,11.61
2017-11-04T10:03:43.571Z,11.78
2017-11-04T10:06:18.712Z,12.02
2017-11-04T10:08:54.116Z,12.12
2017-11-04T10:11:29.153Z,12.17
2017-11-04T10:14:03.793Z,12.27
2017-11-04T10:16:38.923Z,12.45
2017-11-04T10:19:13.400Z,12.61
2017-11-04T10:21:48.713Z,12.65
2017-11-04T10:24:24.056Z,12.53
2017-11-04T10:26:59.193Z,12.52
2017-11-04T10:29:34.188Z,12.64
2017-11-04T10:32:09.496Z,12.75
2017-11-04T10:34:44.680Z,12.98
2017-11-04T10:37:19.052Z,13.11
2017-11-04T10:39:54.176Z,13.26
2017-11-04T10:42:40.566Z,13.39
2017-11-04T10:45:15.451Z,13.41
2017-11-04T10:47:50.224Z,13.22
2017-11-04T10:50:25.661Z,13.03
2017-11-04T10:53:00.596Z,13.01
2017-11-04T10:55:35.406Z,13.05
2017-11-04T10:58:10.580Z,13.02
2017-11-04T11:00:45.735Z,13.10
2017-11-04T11:03:20.421Z,13.26
2017-11-04T11:05:55.884Z,13.41
2017-11-04T11:08:30.740Z,13.45
2017-11-04T11:11:05.625Z,13.56
2017-11-04T11:13:40.212Z,13.65
2017-11-04T11:16:14.748Z,13.74
2017-11-04T11:18:49.760Z,13.70
2017-11-04T11:21:24.808Z,13.69
2017-11-04T11:23:59.996Z,13.66
2017-11-04T11:26:34.931Z,13.69
2017-11-04T11:29:09.892Z,13.79
2017-11-04T11:31:45.139Z,13.89
2017-11-04T11:34:20.347Z,13.98
2017-11-04T11:36:55.772Z,13.97
2017-11-04T11:39:30.732Z,14.08
2017-11-04T11:42:06.372Z,14.13
2017-11-04T11:44:41.818Z,14.27
2017-11-04T11:47:17.307Z,14.39
2017-11-04T11:49:52.447Z,14.41
2017-11-04T11:52:26.855Z,14.57
2017-11-04T11:55:02.172Z,14.50
2017-11-04T11:57:37.241Z,14.65
2017-11-04T12:00:12.464Z,14.60
2017-11-04T12:02:47.723Z,14.51
2017-11-04T12:05:22.849Z,14.52
2017-11-04T12:07:58.015Z,14.54
2017-11-04T12:10:33.628Z,14.70
2017-11-04T12:13:08.765Z,14.86
2017-11-04T12:15:43.914Z,14.80
2017-11-04T12:18:19.398Z,14.51
2017-11-04T12:20:54.591Z,14.44
2017-11-04T12:23:29.808Z,14.28
2017-11-04T12:26:04.679Z,14.21
2017-11-04T12:28:39.507Z,14.21
2017-11-04T12:31:14.108Z,14.22
2017-11-04T12:33:49.568Z,14.20
2017-11-04T12:36:25.111Z,14.17
2017-11-04T12:38:59.814Z,14.15
2017-11-04T12:41:34.352Z,14.08
2017-11-04T12:44:09.783Z,13.99
2017-11-04T12:46:44.610Z,13.90
2017-11-04T12:49:19.935Z,13.95
2017-11-04T12:51:55.043Z,14.02
2017-11-04T12:54:30.315Z,14.16
2017-11-04T12:57:04.892Z,14.25
2017-11-04T12:59:40.219Z,14.17
2017-11-04T13:02:15.281Z,14.19
2017-11-04T13:04:50.486Z,14.35
2017-11-04T13:07:25.635Z,14.50
2017-11-04T13:10:01.020Z,14.57
2017-11-04T13:12:36.359Z,14.66
2017-11-04T13:15:11.072Z,14.67
2017-11-04T13:17:46.092Z,14.67
2017-11-04T13:20:20.952Z,14.58
2017-11-04T13:22:55.596Z,14.67
2017-11-04T13:25:29.724Z,14.74
2017-11-04T13:28:05.009Z,14.75
2017-11-04T13:30:40.139Z,14.78
2017-11-04T13:33:15.287Z,14.75
2017-11-04T13:35:50.692Z,14.80
2017-11-04T13:38:25.608Z,14.89
2017-11-04T13:41:00.777Z,14.94
2017-11-04T13:43:35.904Z,15.02
2017-11-04T13:46:11.056Z,15.13
2017-11-04T13:48:46.395Z,15.16
2017-11-04T13:51:21.324Z,15.22
2017-11-04T13:53:56.067Z,15.18
2017-11-04T13:56:31.128Z,15.13
2017-11-04T13:59:06.572Z,15.09
2017-11-04T14:01:41.856Z,14.98
2017-11-04T14:04:16.651Z,14.89
2017-11-04T14:06:51.159Z,14.80
2017-11-04T14:09:26.488Z,14.73
2017-11-04T14:12:01.316Z,14.73
2017-11-04T14:14:35.867Z,14.80
2017-11-04T14:17:11.203Z,14.93
2017-11-04T14:19:46.123Z,15.06
2017-11-04T14:22:21.280Z,15.17
2017-11-04T14:24:55.855Z,15.28
2017-11-04T14:27:31.019Z,15.32
2017-11-04T14:30:06.298Z,15.32
2017-11-04T14:32:42.019Z,15.36
2017-11-04T14:35:17.372Z,15.47
2017-11-04T14:37:52.624Z,15.41
2017-11-04T14:40:28.056Z,15.41
2017-11-04T14:43:02.906Z,15.39
2017-11-04T14:45:38.240Z,15.27
2017-11-04T14:48:13.069Z,15.18
2017-11-04T14:50:48.076Z,15.10
2017-11-04T14:53:23.052Z,14.97
2017-11-04T14:55:58.079Z,14.95
2017-11-04T14:58:32.900Z,14.93
2017-11-04T15:01:07.932Z,14.94
2017-11-04T15:03:42.964Z,14.89
2017-11-04T15:06:18.124Z,14.90
2017-11-04T15:08:53.012Z,14.92
2017-11-04T15:11:27.970Z,14.96
2017-11-04T15:14:03.852Z,14.97
2017-11-04T15:16:39.179Z,14.99
2017-11-04T15:19:14.385Z,14.98
2017-11-04T15:21:49.560Z,14.88
2017-11-04T15:24:24.916Z,14.64
2017-11-04T15:26:59.835Z,14.59
2017-11-04T15:29:34.800Z,14.53
2017-11-04T15:32:10.226Z,14.47
2017-11-04T15:34:45.552Z,14.45
2017-11-04T15:37:20.380Z,14.41
2017-11-04T15:39:55.808Z,14.32
2017-11-04T15:42:30.679Z,14.22
2017-11-04T15:45:05.616Z,14.26
2017-11-04T15:47:40.444Z,14.25
2017-11-04T15:50:15.649Z,14.27
2017-11-04T15:52:50.778Z,14.33
2017-11-04T15:55:25.855Z,14.40
2017-11-04T15:58:00.983Z,14.51
2017-11-04T16:00:36.108Z,14.58
2017-11-04T16:03:11.160Z,14.62
2017-11-04T16:05:45.663Z,14.63
2017-11-04T16:08:21.404Z,14.62
2017-11-04T16:10:56.135Z,14.61
2017-11-04T16:13:31.300Z,14.52
2017-11-04T16:16:06.410Z,14.35
2017-11-04T16:18:41.536Z,14.12
2017-11-04T16:21:16.593Z,13.80
2017-11-04T16:23:51.739Z,13.42
2017-11-04T16:26:26.851Z,13.13
2017-11-04T16:29:02.017Z,12.87
2017-11-04T16:31:37.048Z,12.66
2017-11-04T16:34:12.219Z,12.56
2017-11-04T16:36:47.204Z,12.49
2017-11-04T16:39:22.160Z,12.41
2017-11-04T16:41:56.920Z,12.40
2017-11-04T16:44:32.068Z,12.42
2017-11-04T16:47:06.956Z,12.40
2017-11-04T16:49:41.406Z,12.36
2017-11-04T16:52:16.127Z,12.33
2017-11-04T16:54:50.932Z,12.35
2017-11-04T16:57:25.838Z,12.41
2017-11-04T17:00:00.535Z,12.47
2017-11-04T17:02:35.856Z,12.47
2017-11-04T17:05:11.020Z,12.36
2017-11-04T17:07:46.027Z,12.40
2017-11-04T17:10:20.867Z,12.42
2017-11-04T17:12:55.520Z,12.36
2017-11-04T17:15:30.427Z,12.30
2017-11-04T17:18:05.419Z,12.36
2017-11-04T17:20:40.483Z,12.39
2017-11-04T17:23:15.831Z,12.40
2017-11-04T17:25:50.348Z,12.40
2017-11-04T17:28:25.575Z,12.37
2017-11-04T17:31:00.680Z,12.39
2017-11-04T17:33:35.604Z,12.45
2017-11-04T17:36:10.852Z,12.52
2017-11-04T17:38:45.716Z,12.51
2017-11-04T17:41:20.306Z,12.52
2017-11-04T17:43:55.721Z,12.56
2017-11-04T17:46:30.803Z,12.59
2017-11-04T17:49:05.136Z,12.69
2017-11-04T17:51:40.795Z,12.75
2017-11-04T17:54:15.736Z,12.82
2017-11-04T17:56:50.504Z,12.92
2017-11-04T17:59:25.487Z,12.98
2017-11-04T18:02:00.308Z,13.08
2017-11-04T18:04:34.970Z,13.14
2017-11-04T18:07:10.115Z,13.22
2017-11-04T18:09:44.827Z,13.26
2017-11-04T18:12:19.780Z,13.27
2017-11-04T18:14:54.888Z,13.29
2017-11-04T18:17:30.196Z,13.32
2017-11-04T18:20:04.992Z,13.36
2017-11-04T18:22:39.780Z,13.38
2017-11-04T18:25:14.928Z,13.45
2017-11-04T18:27:49.431Z,13.47
2017-11-04T18:30:24.408Z,13.53
2017-11-04T18:32:59.551Z,13.63
2017-11-04T18:35:34.563Z,13.68
2017-11-04T18:38:09.797Z,13.71
2017-11-04T18:40:44.647Z,13.69
2017-11-04T18:43:19.987Z,13.71
2017-11-04T18:45:55.000Z,13.74
2017-11-04T18:48:29.747Z,13.77
2017-11-04T18:51:04.288Z,13.78
2017-11-04T18:53:39.256Z,13.82
2017-11-04T18:56:14.535Z,13.84
2017-11-04T18:58:49.776Z,13.87
2017-11-04T19:01:25.000Z,13.95
2017-11-04T19:03:59.704Z,13.98
2017-11-04T19:06:34.815Z,13.99
2017-11-04T19:09:10.341Z,14.02
2017-11-04T19:11:45.445Z,14.01
2017-11-04T19:14:20.324Z,14.09
2017-11-04T19:16:54.720Z,14.20
2017-11-04T19:19:29.243Z,14.20
2017-11-04T19:22:04.512Z,14.15
2017-11-04T19:24:39.548Z,14.10
2017-11-04T19:27:14.896Z,14.14
2017-11-04T19:29:49.831Z,14.10
2017-11-04T19:32:24.971Z,14.07
2017-11-04T19:35:00.031Z,14.08
2017-11-04T19:37:34.667Z,14.15
2017-11-04T19:40:09.307Z,14.13
2017-11-04T19:42:44.500Z,14.02
2017-11-04T19:45:18.980Z,13.91
2017-11-04T19:47:54.156Z,13.89
2017-11-04T19:50:29.127Z,13.84
2017-11-04T19:53:03.963Z,13.91
2017-11-04T19:55:38.359Z,13.93
2017-11-04T19:58:13.076Z,13.96
2017-11-04T20:00:48.016Z,14.03
2017-11-04T20:03:23.132Z,14.05
2017-11-04T20:05:58.172Z,14.14
2017-11-04T20:08:33.495Z,14.18
2017-11-04T20:11:08.603Z,14.24
2017-11-04T20:13:43.839Z,14.24
2017-11-04T20:16:18.488Z,14.20
2017-11-04T20:18:53.739Z,14.25
2017-11-04T20:21:28.143Z,14.29
2017-11-04T20:24:03.435Z,14.30
2017-11-04T20:26:38.648Z,14.35
2017-11-04T20:29:14.092Z,14.40
2017-11-04T20:31:49.242Z,14.38
2017-11-04T20:34:24.493Z,14.40
2017-11-04T20:36:58.937Z,14.39
2017-11-04T20:39:34.232Z,14.30
2017-11-04T20:42:09.368Z,14.34
2017-11-04T20:44:43.811Z,14.39
2017-11-04T20:47:19.024Z,14.42
2017-11-04T20:49:54.152Z,14.37
2017-11-04T20:52:29.103Z,14.40
2017-11-04T20:55:04.352Z,14.45
2017-11-04T20:57:39.749Z,14.48
2017-11-04T21:00:14.961Z,14.52
2017-11-04T21:02:50.288Z,14.52
2017-11-04T21:05:24.792Z,14.53
2017-11-04T21:07:59.376Z,14.52
2017-11-04T21:10:33.776Z,14.46
2017-11-04T21:13:09.032Z,14.57
2017-11-04T21:15:44.160Z,14.49
2017-11-04T21:18:19.866Z,14.53
2017-11-04T21:20:54.828Z,14.57
2017-11-04T21:23:29.728Z,14.59
2017-11-04T21:26:04.900Z,14.56
2017-11-04T21:28:39.952Z,14.57
2017-11-04T21:31:15.105Z,14.58
2017-11-04T21:33:50.160Z,14.57
2017-11-04T21:36:25.060Z,14.60
2017-11-04T21:39:00.159Z,14.60
2017-11-04T21:41:35.521Z,14.66
2017-11-04T21:44:10.930Z,14.64
2017-11-04T21:46:45.999Z,14.67
2017-11-04T21:49:21.332Z,14.72
2017-11-04T21:51:56.479Z,14.77
2017-11-04T21:54:31.516Z,14.81
2017-11-04T21:57:06.765Z,14.84
2017-11-04T21:59:42.111Z,14.78
2017-11-04T22:02:17.469Z,14.79
2017-11-04T22:04:52.056Z,14.80
2017-11-04T22:07:27.100Z,14.80
2017-11-04T22:10:02.209Z,14.73
2017-11-04T22:12:37.461Z,14.66
2017-11-04T22:15:11.864Z,14.62
2017-11-04T22:17:47.160Z,14.63
2017-11-04T22:20:22.239Z,14.59
2017-11-04T22:22:57.140Z,14.54
2017-11-04T22:25:32.427Z,14.47
2017-11-04T22:28:09.112Z,14.52
2017-11-04T22:30:43.868Z,14.54
2017-11-04T22:33:18.877Z,14.54
2017-11-04T22:35:53.759Z,14.55
2017-11-04T22:38:29.164Z,14.49
2017-11-04T22:41:03.696Z,14.45
2017-11-04T22:43:38.992Z,14.48
2017-11-04T22:46:14.088Z,14.51
2017-11-04T22:48:49.080Z,14.54
2017-11-04T22:51:24.187Z,14.55
2017-11-04T22:53:59.323Z,14.61
2017-11-04T22:56:34.055Z,14.68
2017-11-04T22:59:09.170Z,14.67
2017-11-04T23:01:44.505Z,14.69
2017-11-04T23:04:19.103Z,14.69
2017-11-04T23:06:54.257Z,14.74
2017-11-04T23:09:29.584Z,14.77
2017-11-04T23:12:04.095Z,14.80
2017-11-04T23:14:39.431Z,14.82
2017-11-04T23:17:14.400Z,14.86
2017-11-04T23:19:48.924Z,14.87
2017-11-04T23:22:23.827Z,14.89
2017-11-04T23:24:59.100Z,14.97
2017-11-04T23:27:34.263Z,14.95
2017-11-04T23:30:09.184Z,14.95
2017-11-04T23:32:44.520Z,14.94
2017-11-04T23:35:19.764Z,14.92
2017-11-04T23:37:55.204Z,14.92
2017-11-04T23:40:29.747Z,14.91
2017-11-04T23:43:04.691Z,14.93
2017-11-04T23:45:39.580Z,14.94
2017-11-04T23:48:14.200Z,14.91
2017-11-04T23:50:49.556Z,14.96
2017-11-04T23:53:24.895Z,15.02
2017-11-04T23:56:00.343Z,15.02
2017-11-04T23:58:35.147Z,15.04
